sensor_id;sensor_type;location;lat;lon;timestamp;pressure;altitude;pressure_sealevel;temperature;humidity
39793;BME280;26080;42.264;24.536;2023-05-02T00:01:55;99796.56;;;9.56;100.00
39793;BME280;26080;42.264;24.536;2023-05-02T00:04:21;99805.13;;;9.61;100.00
39793;BME280;26080;42.264;24.536;2023-05-02T00:06:46;99811.47;;;9.54;100.00
39793;BME280;26080;42.264;24.536;2023-05-02T00:09:12;99763.56;;;9.28;100.00
39793;BME280;26080;42.264;24.536;2023-05-02T00:11:38;99799.25;;;9.54;100.00
39793;BME280;26080;42.264;24.536;2023-05-02T00:14:03;99808.00;;;9.53;100.00
39793;BME280;26080;42.264;24.536;2023-05-02T00:16:29;99807.84;;;9.58;100.00
39793;BME280;26080;42.264;24.536;2023-05-02T00:18:54;99812.91;;;9.62;100.00
39793;BME280;26080;42.264;24.536;2023-05-02T00:21:20;99810.38;;;9.59;100.00
39793;BME280;26080;42.264;24.536;2023-05-02T00:23:45;99808.25;;;9.70;100.00
39793;BME280;26080;42.264;24.536;2023-05-02T00:26:10;99813.34;;;9.75;100.00
39793;BME280;26080;42.264;24.536;2023-05-02T00:28:37;99808.84;;;9.78;100.00
39793;BME280;26080;42.264;24.536;2023-05-02T00:31:05;99815.53;;;9.86;100.00
39793;BME280;26080;42.264;24.536;2023-05-02T00:33:31;99812.94;;;9.86;100.00
39793;BME280;26080;42.264;24.536;2023-05-02T00:35:56;99811.56;;;9.75;100.00
39793;BME280;26080;42.264;24.536;2023-05-02T00:38:22;99822.59;;;9.60;100.00
39793;BME280;26080;42.264;24.536;2023-05-02T00:40:49;99834.22;;;9.52;100.00
39793;BME280;26080;42.264;24.536;2023-05-02T00:43:16;99791.41;;;9.29;100.00
39793;BME280;26080;42.264;24.536;2023-05-02T00:45:43;99829.53;;;9.61;100.00
39793;BME280;26080;42.264;24.536;2023-05-02T00:48:09;99820.41;;;9.71;100.00
39793;BME280;26080;42.264;24.536;2023-05-02T00:50:40;99818.50;;;9.76;100.00
39793;BME280;26080;42.264;24.536;2023-05-02T00:53:06;99795.22;;;9.69;100.00
39793;BME280;26080;42.264;24.536;2023-05-02T00:55:32;99819.00;;;9.88;100.00
39793;BME280;26080;42.264;24.536;2023-05-02T00:58:02;99821.47;;;9.91;100.00
39793;BME280;26080;42.264;24.536;2023-05-02T01:03:31;99816.94;;;9.96;100.00
39793;BME280;26080;42.264;24.536;2023-05-02T01:08:46;99825.06;;;9.88;100.00
39793;BME280;26080;42.264;24.536;2023-05-02T01:11:21;99825.09;;;9.87;100.00
39793;BME280;26080;42.264;24.536;2023-05-02T01:13:51;99821.59;;;9.88;100.00
39793;BME280;26080;42.264;24.536;2023-05-02T01:16:18;99799.66;;;9.67;100.00
39793;BME280;26080;42.264;24.536;2023-05-02T01:18:46;99828.53;;;9.89;100.00
39793;BME280;26080;42.264;24.536;2023-05-02T01:21:12;99828.63;;;9.86;100.00
39793;BME280;26080;42.264;24.536;2023-05-02T01:31:26;99828.06;;;9.53;100.00
39793;BME280;26080;42.264;24.536;2023-05-02T01:33:54;99833.97;;;9.58;100.00
39793;BME280;26080;42.264;24.536;2023-05-02T01:36:21;99826.84;;;9.63;100.00
39793;BME280;26080;42.264;24.536;2023-05-02T01:38:50;99835.53;;;9.63;100.00
39793;BME280;26080;42.264;24.536;2023-05-02T01:41:17;99836.53;;;9.59;100.00
39793;BME280;26080;42.264;24.536;2023-05-02T01:43:45;99805.69;;;9.44;100.00
39793;BME280;26080;42.264;24.536;2023-05-02T01:46:12;99834.31;;;9.48;100.00
39793;BME280;26080;42.264;24.536;2023-05-02T01:48:40;99839.69;;;9.44;100.00
39793;BME280;26080;42.264;24.536;2023-05-02T01:51:10;99839.00;;;9.39;100.00
39793;BME280;26080;42.264;24.536;2023-05-02T01:53:37;99838.50;;;9.28;100.00
39793;BME280;26080;42.264;24.536;2023-05-02T01:56:04;99795.31;;;8.91;100.00
39793;BME280;26080;42.264;24.536;2023-05-02T01:58:31;99843.31;;;9.13;100.00
39793;BME280;26080;42.264;24.536;2023-05-02T02:00:59;99838.31;;;9.07;100.00
39793;BME280;26080;42.264;24.536;2023-05-02T02:03:27;99817.00;;;8.93;100.00
39793;BME280;26080;42.264;24.536;2023-05-02T02:05:54;99848.78;;;9.07;100.00
39793;BME280;26080;42.264;24.536;2023-05-02T02:08:20;99796.56;;;8.79;100.00
39793;BME280;26080;42.264;24.536;2023-05-02T02:10:56;99839.28;;;9.05;100.00
39793;BME280;26080;42.264;24.536;2023-05-02T02:13:46;99838.00;;;9.16;100.00
39793;BME280;26080;42.264;24.536;2023-05-02T02:16:18;99834.53;;;9.16;100.00
39793;BME280;26080;42.264;24.536;2023-05-02T02:18:46;99845.13;;;9.11;100.00
39793;BME280;26080;42.264;24.536;2023-05-02T02:21:15;99842.75;;;9.05;100.00
39793;BME280;26080;42.264;24.536;2023-05-02T02:23:44;99840.19;;;9.02;100.00
39793;BME280;26080;42.264;24.536;2023-05-02T02:26:12;99814.63;;;8.85;100.00
39793;BME280;26080;42.264;24.536;2023-05-02T02:28:38;99846.44;;;8.98;100.00
39793;BME280;26080;42.264;24.536;2023-05-02T02:31:04;99851.78;;;8.95;100.00
39793;BME280;26080;42.264;24.536;2023-05-02T02:33:30;99855.81;;;8.77;100.00
39793;BME280;26080;42.264;24.536;2023-05-02T02:36:38;99851.31;;;8.82;100.00
39793;BME280;26080;42.264;24.536;2023-05-02T02:41:48;99856.25;;;8.90;100.00
39793;BME280;26080;42.264;24.536;2023-05-02T02:44:25;99848.44;;;8.90;100.00
39793;BME280;26080;42.264;24.536;2023-05-02T02:47:10;99851.91;;;8.90;100.00
39793;BME280;26080;42.264;24.536;2023-05-02T02:49:48;99854.75;;;8.83;100.00
39793;BME280;26080;42.264;24.536;2023-05-02T02:55:06;99860.63;;;8.61;100.00
39793;BME280;26080;42.264;24.536;2023-05-02T02:57:40;99834.84;;;8.52;100.00
39793;BME280;26080;42.264;24.536;2023-05-02T03:00:11;99864.78;;;8.69;100.00
39793;BME280;26080;42.264;24.536;2023-05-02T03:02:38;99874.06;;;8.79;100.00
39793;BME280;26080;42.264;24.536;2023-05-02T03:05:06;99869.31;;;8.90;100.00
39793;BME280;26080;42.264;24.536;2023-05-02T03:07:33;99877.16;;;8.90;100.00
39793;BME280;26080;42.264;24.536;2023-05-02T03:10:02;99871.34;;;8.82;100.00
39793;BME280;26080;42.264;24.536;2023-05-02T03:12:28;99870.66;;;8.75;100.00
39793;BME280;26080;42.264;24.536;2023-05-02T03:17:44;99884.09;;;8.63;100.00
39793;BME280;26080;42.264;24.536;2023-05-02T03:20:09;99888.78;;;8.52;100.00
39793;BME280;26080;42.264;24.536;2023-05-02T03:22:35;99893.63;;;8.35;100.00
39793;BME280;26080;42.264;24.536;2023-05-02T03:25:00;99891.31;;;8.24;100.00
39793;BME280;26080;42.264;24.536;2023-05-02T03:27:26;99876.75;;;8.15;100.00
39793;BME280;26080;42.264;24.536;2023-05-02T03:29:52;99900.84;;;8.25;100.00
39793;BME280;26080;42.264;24.536;2023-05-02T03:32:17;99904.81;;;8.40;100.00
39793;BME280;26080;42.264;24.536;2023-05-02T03:34:43;99884.38;;;8.54;100.00
39793;BME280;26080;42.264;24.536;2023-05-02T03:37:08;99906.13;;;9.38;100.00
39793;BME280;26080;42.264;24.536;2023-05-02T03:39:34;99908.13;;;9.82;100.00
39793;BME280;26080;42.264;24.536;2023-05-02T03:41:59;99908.94;;;10.08;100.00
39793;BME280;26080;42.264;24.536;2023-05-02T03:44:26;99906.94;;;10.40;100.00
39793;BME280;26080;42.264;24.536;2023-05-02T03:46:51;99904.25;;;10.65;100.00
39793;BME280;26080;42.264;24.536;2023-05-02T03:49:16;99908.22;;;10.98;100.00
39793;BME280;26080;42.264;24.536;2023-05-02T03:51:43;99917.22;;;11.13;100.00
39793;BME280;26080;42.264;24.536;2023-05-02T03:54:09;99914.25;;;11.01;100.00
39793;BME280;26080;42.264;24.536;2023-05-02T03:56:34;99913.53;;;10.95;100.00
39793;BME280;26080;42.264;24.536;2023-05-02T03:59:00;99919.50;;;10.77;100.00
39793;BME280;26080;42.264;24.536;2023-05-02T04:01:26;99925.78;;;10.96;100.00
39793;BME280;26080;42.264;24.536;2023-05-02T04:03:51;99936.53;;;11.54;100.00
39793;BME280;26080;42.264;24.536;2023-05-02T04:06:17;99937.28;;;12.19;100.00
39793;BME280;26080;42.264;24.536;2023-05-02T04:08:42;99937.81;;;13.04;100.00
39793;BME280;26080;42.264;24.536;2023-05-02T04:11:08;99937.81;;;13.59;100.00
39793;BME280;26080;42.264;24.536;2023-05-02T04:13:34;99942.28;;;14.09;100.00
39793;BME280;26080;42.264;24.536;2023-05-02T04:15:59;99946.34;;;13.99;100.00
39793;BME280;26080;42.264;24.536;2023-05-02T04:18:25;99950.31;;;13.37;100.00
39793;BME280;26080;42.264;24.536;2023-05-02T04:20:50;99945.22;;;12.77;100.00
39793;BME280;26080;42.264;24.536;2023-05-02T04:23:16;99950.59;;;12.55;100.00
39793;BME280;26080;42.264;24.536;2023-05-02T04:25:50;99925.59;;;12.07;100.00
39793;BME280;26080;42.264;24.536;2023-05-02T04:28:16;99957.19;;;12.25;100.00
39793;BME280;26080;42.264;24.536;2023-05-02T04:30:41;99957.91;;;12.28;100.00
39793;BME280;26080;42.264;24.536;2023-05-02T04:33:06;99956.66;;;12.16;100.00
39793;BME280;26080;42.264;24.536;2023-05-02T04:35:32;99958.38;;;12.18;100.00
39793;BME280;26080;42.264;24.536;2023-05-02T04:37:57;99959.56;;;12.10;100.00
39793;BME280;26080;42.264;24.536;2023-05-02T04:40:23;99959.97;;;12.22;100.00
39793;BME280;26080;42.264;24.536;2023-05-02T04:42:48;99965.03;;;12.65;100.00
39793;BME280;26080;42.264;24.536;2023-05-02T04:45:13;99951.28;;;13.15;100.00
39793;BME280;26080;42.264;24.536;2023-05-02T04:47:39;99945.22;;;13.68;100.00
39793;BME280;26080;42.264;24.536;2023-05-02T04:50:05;99950.81;;;13.79;100.00
39793;BME280;26080;42.264;24.536;2023-05-02T04:52:31;99963.69;;;13.85;100.00
39793;BME280;26080;42.264;24.536;2023-05-02T04:54:56;99959.19;;;13.87;100.00
39793;BME280;26080;42.264;24.536;2023-05-02T04:57:22;99949.28;;;13.75;96.86
39793;BME280;26080;42.264;24.536;2023-05-02T04:59:47;99956.41;;;13.73;100.00
39793;BME280;26080;42.264;24.536;2023-05-02T05:02:13;99955.06;;;13.64;100.00
39793;BME280;26080;42.264;24.536;2023-05-02T05:04:39;99954.91;;;13.68;100.00
39793;BME280;26080;42.264;24.536;2023-05-02T05:07:04;99960.25;;;13.49;100.00
39793;BME280;26080;42.264;24.536;2023-05-02T05:09:30;99952.16;;;13.34;100.00
39793;BME280;26080;42.264;24.536;2023-05-02T05:11:55;99960.69;;;13.40;100.00
39793;BME280;26080;42.264;24.536;2023-05-02T05:14:20;99951.31;;;13.34;100.00
39793;BME280;26080;42.264;24.536;2023-05-02T05:16:46;99932.84;;;13.17;100.00
39793;BME280;26080;42.264;24.536;2023-05-02T05:19:12;99962.53;;;13.38;100.00
39793;BME280;26080;42.264;24.536;2023-05-02T05:21:37;99960.97;;;13.33;100.00
39793;BME280;26080;42.264;24.536;2023-05-02T05:24:03;99962.13;;;13.28;100.00
39793;BME280;26080;42.264;24.536;2023-05-02T05:26:28;99963.66;;;13.13;100.00
39793;BME280;26080;42.264;24.536;2023-05-02T05:28:54;99966.06;;;13.19;100.00
39793;BME280;26080;42.264;24.536;2023-05-02T05:31:19;99973.63;;;13.25;100.00
39793;BME280;26080;42.264;24.536;2023-05-02T05:33:45;99967.38;;;13.28;98.83
39793;BME280;26080;42.264;24.536;2023-05-02T05:36:12;99978.47;;;13.34;95.23
39793;BME280;26080;42.264;24.536;2023-05-02T05:38:39;99965.94;;;13.40;95.60
39793;BME280;26080;42.264;24.536;2023-05-02T05:41:04;99976.31;;;13.43;94.29
39793;BME280;26080;42.264;24.536;2023-05-02T05:43:30;99961.25;;;13.27;94.69
39793;BME280;26080;42.264;24.536;2023-05-02T05:45:56;99987.84;;;13.40;94.80
39793;BME280;26080;42.264;24.536;2023-05-02T05:48:22;99945.78;;;13.21;97.15
39793;BME280;26080;42.264;24.536;2023-05-02T05:50:48;99987.25;;;13.52;96.88
39793;BME280;26080;42.264;24.536;2023-05-02T05:53:14;99990.53;;;13.57;100.00
39793;BME280;26080;42.264;24.536;2023-05-02T05:55:40;99973.00;;;13.56;99.13
39793;BME280;26080;42.264;24.536;2023-05-02T05:58:06;99984.03;;;13.82;99.73
39793;BME280;26080;42.264;24.536;2023-05-02T06:00:35;99981.88;;;13.90;100.00
39793;BME280;26080;42.264;24.536;2023-05-02T06:03:01;99998.69;;;14.05;97.34
39793;BME280;26080;42.264;24.536;2023-05-02T06:05:28;99991.28;;;14.13;96.41
39793;BME280;26080;42.264;24.536;2023-05-02T06:07:54;99976.63;;;14.07;99.31
39793;BME280;26080;42.264;24.536;2023-05-02T06:10:19;99993.41;;;14.22;92.23
39793;BME280;26080;42.264;24.536;2023-05-02T06:12:45;99990.69;;;14.23;99.22
39793;BME280;26080;42.264;24.536;2023-05-02T06:15:10;99967.91;;;14.22;95.73
39793;BME280;26080;42.264;24.536;2023-05-02T06:17:36;99983.44;;;14.46;95.30
39793;BME280;26080;42.264;24.536;2023-05-02T06:20:01;99986.44;;;14.56;94.53
39793;BME280;26080;42.264;24.536;2023-05-02T06:22:27;99989.00;;;14.57;99.50
39793;BME280;26080;42.264;24.536;2023-05-02T06:24:53;99984.41;;;14.61;95.47
39793;BME280;26080;42.264;24.536;2023-05-02T06:27:18;99978.03;;;14.65;97.47
39793;BME280;26080;42.264;24.536;2023-05-02T06:29:43;99990.72;;;14.74;93.91
39793;BME280;26080;42.264;24.536;2023-05-02T06:32:09;99980.34;;;14.71;86.38
39793;BME280;26080;42.264;24.536;2023-05-02T06:34:34;99968.59;;;14.61;83.24
39793;BME280;26080;42.264;24.536;2023-05-02T06:37:00;99976.69;;;14.73;82.83
39793;BME280;26080;42.264;24.536;2023-05-02T06:39:25;99963.44;;;14.75;81.35
39793;BME280;26080;42.264;24.536;2023-05-02T06:41:55;99967.94;;;14.73;79.83
39793;BME280;26080;42.264;24.536;2023-05-02T06:44:21;99954.47;;;14.62;80.97
39793;BME280;26080;42.264;24.536;2023-05-02T06:46:47;99957.00;;;14.47;79.53
39793;BME280;26080;42.264;24.536;2023-05-02T06:49:12;99948.59;;;14.57;81.06
39793;BME280;26080;42.264;24.536;2023-05-02T06:51:38;99957.47;;;14.71;81.01
39793;BME280;26080;42.264;24.536;2023-05-02T06:54:03;99958.03;;;14.61;78.83
39793;BME280;26080;42.264;24.536;2023-05-02T06:56:29;99956.00;;;14.66;78.96
39793;BME280;26080;42.264;24.536;2023-05-02T06:58:55;99956.00;;;14.66;79.05
39793;BME280;26080;42.264;24.536;2023-05-02T07:01:20;99958.50;;;14.69;78.22
39793;BME280;26080;42.264;24.536;2023-05-02T07:03:46;99955.94;;;14.67;78.99
39793;BME280;26080;42.264;24.536;2023-05-02T07:06:11;99934.78;;;14.69;82.27
39793;BME280;26080;42.264;24.536;2023-05-02T07:08:37;99952.31;;;15.01;79.87
39793;BME280;26080;42.264;24.536;2023-05-02T07:11:02;99952.97;;;15.21;82.06
39793;BME280;26080;42.264;24.536;2023-05-02T07:13:28;99948.88;;;15.31;78.51
39793;BME280;26080;42.264;24.536;2023-05-02T07:15:53;99914.84;;;15.26;81.56
39793;BME280;26080;42.264;24.536;2023-05-02T07:18:19;99937.53;;;15.60;75.44
39793;BME280;26080;42.264;24.536;2023-05-02T07:20:45;99940.34;;;15.57;74.43
39793;BME280;26080;42.264;24.536;2023-05-02T07:23:11;99942.91;;;15.43;75.63
39793;BME280;26080;42.264;24.536;2023-05-02T07:25:36;99938.69;;;15.40;75.04
39793;BME280;26080;42.264;24.536;2023-05-02T07:28:04;99942.41;;;15.52;73.64
39793;BME280;26080;42.264;24.536;2023-05-02T07:30:29;99936.00;;;15.56;72.46
39793;BME280;26080;42.264;24.536;2023-05-02T07:32:55;99932.88;;;15.65;73.87
39793;BME280;26080;42.264;24.536;2023-05-02T07:35:20;99935.75;;;15.77;71.09
39793;BME280;26080;42.264;24.536;2023-05-02T07:37:47;99930.00;;;15.84;71.21
39793;BME280;26080;42.264;24.536;2023-05-02T07:40:14;99906.69;;;15.77;71.62
39793;BME280;26080;42.264;24.536;2023-05-02T07:42:39;99929.00;;;16.01;72.52
39793;BME280;26080;42.264;24.536;2023-05-02T07:45:09;99932.78;;;16.11;72.58
39793;BME280;26080;42.264;24.536;2023-05-02T07:47:35;99914.56;;;16.07;73.95
39793;BME280;26080;42.264;24.536;2023-05-02T07:50:06;99935.06;;;16.17;69.87
39793;BME280;26080;42.264;24.536;2023-05-02T07:52:33;99930.53;;;16.05;70.00
39793;BME280;26080;42.264;24.536;2023-05-02T07:54:59;99923.72;;;16.15;73.58
39793;BME280;26080;42.264;24.536;2023-05-02T07:57:25;99920.53;;;16.24;75.50
39793;BME280;26080;42.264;24.536;2023-05-02T07:59:51;99916.59;;;16.32;72.37
39793;BME280;26080;42.264;24.536;2023-05-02T08:02:16;99911.84;;;16.51;68.66
39793;BME280;26080;42.264;24.536;2023-05-02T08:04:44;99898.94;;;16.46;70.79
39793;BME280;26080;42.264;24.536;2023-05-02T08:07:10;99903.72;;;16.54;70.22
39793;BME280;26080;42.264;24.536;2023-05-02T08:09:35;99910.06;;;16.66;71.43
39793;BME280;26080;42.264;24.536;2023-05-02T08:12:00;99874.44;;;16.71;69.64
39793;BME280;26080;42.264;24.536;2023-05-02T08:14:30;99899.41;;;17.08;68.38
39793;BME280;26080;42.264;24.536;2023-05-02T08:16:56;99900.22;;;17.23;66.35
39793;BME280;26080;42.264;24.536;2023-05-02T08:19:21;99889.47;;;17.39;62.85
39793;BME280;26080;42.264;24.536;2023-05-02T08:21:47;99885.00;;;17.39;62.42
39793;BME280;26080;42.264;24.536;2023-05-02T08:24:12;99886.34;;;17.59;65.10
39793;BME280;26080;42.264;24.536;2023-05-02T08:26:37;99878.84;;;17.66;59.78
39793;BME280;26080;42.264;24.536;2023-05-02T08:29:03;99869.28;;;17.63;57.42
39793;BME280;26080;42.264;24.536;2023-05-02T08:31:29;99876.56;;;17.74;57.83
39793;BME280;26080;42.264;24.536;2023-05-02T08:33:54;99870.81;;;17.80;54.60
39793;BME280;26080;42.264;24.536;2023-05-02T08:36:20;99864.41;;;17.97;47.44
39793;BME280;26080;42.264;24.536;2023-05-02T08:38:45;99865.53;;;17.93;47.81
39793;BME280;26080;42.264;24.536;2023-05-02T08:41:16;99865.66;;;17.91;47.89
39793;BME280;26080;42.264;24.536;2023-05-02T08:43:43;99857.59;;;18.05;48.90
39793;BME280;26080;42.264;24.536;2023-05-02T08:46:11;99836.00;;;17.99;46.16
39793;BME280;26080;42.264;24.536;2023-05-02T08:48:39;99852.84;;;18.11;45.53
39793;BME280;26080;42.264;24.536;2023-05-02T08:51:13;99847.09;;;18.29;48.49
39793;BME280;26080;42.264;24.536;2023-05-02T08:53:40;99817.69;;;18.32;44.85
39793;BME280;26080;42.264;24.536;2023-05-02T08:56:07;99852.16;;;18.45;47.39
39793;BME280;26080;42.264;24.536;2023-05-02T08:58:34;99812.59;;;18.42;48.94
39793;BME280;26080;42.264;24.536;2023-05-02T09:01:01;99843.81;;;18.75;44.75
39793;BME280;26080;42.264;24.536;2023-05-02T09:08:34;99847.94;;;18.92;41.93
39793;BME280;26080;42.264;24.536;2023-05-02T09:11:03;99826.63;;;18.81;42.57
39793;BME280;26080;42.264;24.536;2023-05-02T09:16:15;99829.38;;;19.03;45.26
39793;BME280;26080;42.264;24.536;2023-05-02T09:18:46;99827.03;;;19.11;42.19
39793;BME280;26080;42.264;24.536;2023-05-02T09:21:25;99826.06;;;19.12;42.11
39793;BME280;26080;42.264;24.536;2023-05-02T09:23:54;99812.28;;;19.07;40.88
39793;BME280;26080;42.264;24.536;2023-05-02T09:26:21;99826.13;;;19.00;42.22
39793;BME280;26080;42.264;24.536;2023-05-02T09:31:14;99800.66;;;19.21;41.51
39793;BME280;26080;42.264;24.536;2023-05-02T09:33:40;99805.97;;;19.32;40.27
39793;BME280;26080;42.264;24.536;2023-05-02T09:36:10;99778.19;;;19.25;38.03
39793;BME280;26080;42.264;24.536;2023-05-02T09:38:37;99803.16;;;19.46;38.66
39793;BME280;26080;42.264;24.536;2023-05-02T09:41:03;99797.88;;;19.58;37.47
39793;BME280;26080;42.264;24.536;2023-05-02T09:43:30;99803.88;;;19.48;37.33
39793;BME280;26080;42.264;24.536;2023-05-02T09:46:00;99809.63;;;19.42;35.79
39793;BME280;26080;42.264;24.536;2023-05-02T09:48:30;99796.84;;;19.36;36.84
39793;BME280;26080;42.264;24.536;2023-05-02T09:50:56;99765.78;;;19.26;36.28
39793;BME280;26080;42.264;24.536;2023-05-02T09:53:26;99795.47;;;19.31;36.34
39793;BME280;26080;42.264;24.536;2023-05-02T09:55:59;99794.50;;;19.32;36.85
39793;BME280;26080;42.264;24.536;2023-05-02T09:58:24;99784.63;;;19.34;36.97
39793;BME280;26080;42.264;24.536;2023-05-02T10:00:50;99792.56;;;19.58;37.09
39793;BME280;26080;42.264;24.536;2023-05-02T10:03:17;99784.91;;;19.53;38.24
39793;BME280;26080;42.264;24.536;2023-05-02T10:05:45;99775.56;;;19.60;38.68
39793;BME280;26080;42.264;24.536;2023-05-02T10:08:11;99774.56;;;19.72;37.72
39793;BME280;26080;42.264;24.536;2023-05-02T10:10:52;99776.50;;;19.70;37.76
39793;BME280;26080;42.264;24.536;2023-05-02T10:13:19;99774.22;;;19.66;37.02
39793;BME280;26080;42.264;24.536;2023-05-02T10:15:48;99746.66;;;19.56;36.69
39793;BME280;26080;42.264;24.536;2023-05-02T10:18:20;99767.81;;;19.68;36.77
39793;BME280;26080;42.264;24.536;2023-05-02T10:20:58;99774.84;;;19.92;35.94
39793;BME280;26080;42.264;24.536;2023-05-02T10:23:25;99759.38;;;19.63;36.13
39793;BME280;26080;42.264;24.536;2023-05-02T10:25:52;99765.78;;;19.61;34.74
39793;BME280;26080;42.264;24.536;2023-05-02T10:28:19;99768.22;;;19.75;38.47
39793;BME280;26080;42.264;24.536;2023-05-02T10:30:45;99765.53;;;19.86;37.27
39793;BME280;26080;42.264;24.536;2023-05-02T10:33:12;99745.84;;;19.77;38.29
39793;BME280;26080;42.264;24.536;2023-05-02T10:35:41;99754.56;;;19.91;38.65
39793;BME280;26080;42.264;24.536;2023-05-02T10:38:08;99744.41;;;20.07;38.61
39793;BME280;26080;42.264;24.536;2023-05-02T10:40:34;99750.91;;;20.14;38.33
39793;BME280;26080;42.264;24.536;2023-05-02T10:43:00;99753.09;;;20.20;39.53
39793;BME280;26080;42.264;24.536;2023-05-02T10:45:29;99752.31;;;20.40;38.94
39793;BME280;26080;42.264;24.536;2023-05-02T10:48:18;99746.28;;;20.50;39.36
39793;BME280;26080;42.264;24.536;2023-05-02T10:50:51;99745.56;;;20.36;37.13
39793;BME280;26080;42.264;24.536;2023-05-02T10:53:34;99735.19;;;20.45;37.44
39793;BME280;26080;42.264;24.536;2023-05-02T10:56:20;99733.38;;;20.34;34.76
39793;BME280;26080;42.264;24.536;2023-05-02T10:58:48;99726.84;;;20.27;36.81
39793;BME280;26080;42.264;24.536;2023-05-02T11:04:02;99742.06;;;20.25;35.80
39793;BME280;26080;42.264;24.536;2023-05-02T11:06:33;99729.88;;;20.22;38.56
39793;BME280;26080;42.264;24.536;2023-05-02T11:11:43;99714.53;;;20.15;36.82
39793;BME280;26080;42.264;24.536;2023-05-02T11:14:10;99724.94;;;20.29;37.90
39793;BME280;26080;42.264;24.536;2023-05-02T11:19:28;99738.69;;;20.56;37.34
39793;BME280;26080;42.264;24.536;2023-05-02T11:24:47;99723.44;;;20.47;36.75
39793;BME280;26080;42.264;24.536;2023-05-02T11:30:04;99685.38;;;20.24;35.77
39793;BME280;26080;42.264;24.536;2023-05-02T11:40:23;99712.41;;;20.63;36.84
39793;BME280;26080;42.264;24.536;2023-05-02T11:42:49;99676.41;;;20.48;34.97
39793;BME280;26080;42.264;24.536;2023-05-02T11:45:14;99708.78;;;20.53;36.52
39793;BME280;26080;42.264;24.536;2023-05-02T11:47:41;99711.88;;;20.69;35.03
39793;BME280;26080;42.264;24.536;2023-05-02T11:50:07;99714.78;;;20.66;35.07
39793;BME280;26080;42.264;24.536;2023-05-02T11:52:41;99689.13;;;20.76;34.91
39793;BME280;26080;42.264;24.536;2023-05-02T11:55:10;99693.91;;;20.82;34.16
39793;BME280;26080;42.264;24.536;2023-05-02T11:57:36;99677.91;;;20.93;33.68
39793;BME280;26080;42.264;24.536;2023-05-02T12:00:03;99691.50;;;21.11;33.40
39793;BME280;26080;42.264;24.536;2023-05-02T12:02:38;99674.66;;;21.11;33.84
39793;BME280;26080;42.264;24.536;2023-05-02T12:05:08;99664.03;;;21.11;33.90
39793;BME280;26080;42.264;24.536;2023-05-02T12:07:38;99665.81;;;21.10;33.79
39793;BME280;26080;42.264;24.536;2023-05-02T12:10:08;99670.19;;;21.11;35.66
39793;BME280;26080;42.264;24.536;2023-05-02T12:12:35;99665.72;;;21.33;32.59
39793;BME280;26080;42.264;24.536;2023-05-02T12:15:05;99665.69;;;21.53;33.68
39793;BME280;26080;42.264;24.536;2023-05-02T12:17:32;99657.56;;;21.65;32.28
39793;BME280;26080;42.264;24.536;2023-05-02T12:19:59;99658.41;;;21.65;31.82
39793;BME280;26080;42.264;24.536;2023-05-02T12:22:27;99643.25;;;21.56;32.23
39793;BME280;26080;42.264;24.536;2023-05-02T12:24:52;99643.25;;;21.56;32.61
39793;BME280;26080;42.264;24.536;2023-05-02T12:27:18;99641.78;;;21.42;31.99
39793;BME280;26080;42.264;24.536;2023-05-02T12:29:45;99627.16;;;21.37;33.30
39793;BME280;26080;42.264;24.536;2023-05-02T12:32:12;99635.84;;;21.29;32.65
39793;BME280;26080;42.264;24.536;2023-05-02T12:34:38;99621.25;;;21.33;33.38
39793;BME280;26080;42.264;24.536;2023-05-02T12:37:05;99623.22;;;21.31;31.91
39793;BME280;26080;42.264;24.536;2023-05-02T12:39:38;99612.13;;;21.26;33.28
39793;BME280;26080;42.264;24.536;2023-05-02T12:42:18;99606.03;;;21.24;34.07
39793;BME280;26080;42.264;24.536;2023-05-02T12:44:45;99611.34;;;21.24;33.80
39793;BME280;26080;42.264;24.536;2023-05-02T12:47:12;99608.34;;;21.28;36.05
39793;BME280;26080;42.264;24.536;2023-05-02T12:49:51;99596.16;;;21.26;34.67
39793;BME280;26080;42.264;24.536;2023-05-02T12:55:18;99582.16;;;21.34;34.54
39793;BME280;26080;42.264;24.536;2023-05-02T12:57:44;99587.66;;;21.42;36.18
39793;BME280;26080;42.264;24.536;2023-05-02T13:00:10;99587.44;;;21.54;34.55
39793;BME280;26080;42.264;24.536;2023-05-02T13:02:36;99581.16;;;21.35;34.72
39793;BME280;26080;42.264;24.536;2023-05-02T13:05:01;99564.53;;;21.21;36.08
39793;BME280;26080;42.264;24.536;2023-05-02T13:07:27;99573.09;;;21.46;36.27
39793;BME280;26080;42.264;24.536;2023-05-02T13:09:52;99578.69;;;21.43;34.09
39793;BME280;26080;42.264;24.536;2023-05-02T13:12:18;99579.81;;;21.40;35.50
39793;BME280;26080;42.264;24.536;2023-05-02T13:14:43;99567.47;;;21.49;36.46
39793;BME280;26080;42.264;24.536;2023-05-02T13:17:09;99577.63;;;21.65;36.86
39793;BME280;26080;42.264;24.536;2023-05-02T13:19:34;99578.91;;;21.70;35.50
39793;BME280;26080;42.264;24.536;2023-05-02T13:22:00;99573.31;;;21.73;34.31
39793;BME280;26080;42.264;24.536;2023-05-02T13:24:25;99586.81;;;21.41;35.06
39793;BME280;26080;42.264;24.536;2023-05-02T13:26:51;99578.97;;;21.49;35.23
39793;BME280;26080;42.264;24.536;2023-05-02T13:29:16;99565.19;;;21.35;34.50
39793;BME280;26080;42.264;24.536;2023-05-02T13:31:42;99582.31;;;21.42;34.49
39793;BME280;26080;42.264;24.536;2023-05-02T13:34:07;99578.69;;;21.43;34.87
39793;BME280;26080;42.264;24.536;2023-05-02T13:36:33;99582.06;;;21.45;35.14
39793;BME280;26080;42.264;24.536;2023-05-02T13:38:59;99575.28;;;21.31;34.84
39793;BME280;26080;42.264;24.536;2023-05-02T13:41:24;99570.22;;;21.38;34.39
39793;BME280;26080;42.264;24.536;2023-05-02T13:43:50;99572.66;;;21.50;35.67
39793;BME280;26080;42.264;24.536;2023-05-02T13:46:15;99582.56;;;21.29;34.34